Atlantic Clover — 3FVD6 — position and weather

sailwx.info

Track history (hours):
 
Tides and Currents Weather Stations Pressure Air Temp Water Temp Dewpoint Dewpoint Depression Visibility Wind Speed Wind Dir Waves Ship Positions

Atlantic Clover

Last reported at 2015-Jul-01 20:26 UTC. Time now 2015-Jul-02 03:35 UTC.
Position N 54°03' E 008°09'.

Length 180 m; draft 8.1 m.

Type: Cargo ship. MMSI: 371263000.

Date/timePositionNaut miles runAvg speedWind from/ knotsBaromVisibWave heightAir tempDewpointWater temp
2015-Jul-01 20:26N 54°03' E 008°09'0 0.0
2015-Jul-01 19:26N 54°03' E 008°09'0 0.1
2015-Jul-01 17:32N 54°03' E 008°09'0 0.0
2015-Jul-01 16:20N 54°03' E 008°09'0 0.0
2015-Jul-01 15:26N 54°03' E 008°09'0 0.0
2015-Jul-01 14:32N 54°03' E 008°09'0 0.4
2015-Jul-01 13:33N 54°03' E 008°08'6 5.7
2015-Jul-01 12:33N 54°02' E 007°59'2311.3
2015-Jul-01 10:33N 53°54' E 007°23'1312.4
2015-Jul-01 09:31N 53°51' E 007°02'1313.0
2015-Jul-01 08:30N 53°48' E 006°40'1313.3
2015-Jul-01 07:33N 53°45' E 006°19'1313.4
2015-Jul-01 06:33N 53°40' E 005°58'1313.3
2015-Jul-01 05:33N 53°36' E 005°37'1313.3
2015-Jul-01 04:33N 53°31' E 005°16'1313.3
2015-Jul-01 03:33N 53°27' E 004°55'1312.7
2015-Jul-01 02:33N 53°19' E 004°38'1413.7
2015-Jul-01 01:34N 53°07' E 004°27'1312.9
2015-Jul-01 00:33N 52°55' E 004°17'1212.2
2015-Jun-30 23:34N 52°45' E 004°06'1211.8
2015-Jun-30 22:34N 52°36' E 003°54'1111.5
2015-Jun-30 21:34N 52°28' E 003°40'1111.1
2015-Jun-30 20:34N 52°20' E 003°27'1210.8
2015-Jun-30 19:25N 52°12' E 003°13'2310.9
2015-Jun-30 17:20N 51°55' E 002°48'1011.7
2015-Jun-30 16:29N 51°47' E 002°38'1112.2
2015-Jun-30 15:33N 51°38' E 002°26'1312.8
2015-Jun-30 14:33N 51°28' E 002°14'1313.1
2015-Jun-30 13:34N 51°16' E 002°06'1313.5
2015-Jun-30 12:33N 51°08' E 001°48'1514.5
2015-Jun-30 11:33N 50°58' E 001°32'1515.1
2015-Jun-30 10:33N 50°44' E 001°23'1413.7
2015-Jun-30 09:32N 50°35' E 001°07'1313.1
2015-Jun-30 08:33N 50°28' E 000°49'1413.7
2015-Jun-30 07:33N 50°25' E 000°29'1514.2
2015-Jun-30 06:28N 50°21' E 000°05'1313.8
2015-Jun-30 05:33N 50°17' W 000°14'1313.6
2015-Jun-30 04:33N 50°14' W 000°34'1312.9
2015-Jun-30 03:33N 50°11' W 000°54'1211.7
2015-Jun-30 02:33N 50°07' W 001°11'1110.6
2015-Jun-30 01:33N 50°05' W 001°27'10 9.7
2015-Jun-30 00:33N 50°02' W 001°42'9 9.3
2015-Jun-29 23:34N 49°60' W 001°56'10 9.7
2015-Jun-29 22:34N 49°57' W 002°11'1111.1
2015-Jun-29 21:34N 49°54' W 002°27'1312.5
2015-Jun-29 20:34N 49°51' W 002°46'1312.9
2015-Jun-29 19:33N 49°45' W 003°04'1313.1
2015-Jun-29 18:33N 49°39' W 003°22'12013.2
2015-Jun-29 09:25N 48°30' W 005°52'1112.2
2015-Jun-29 08:30N 48°20' W 006°02'1111.8
2015-Jun-29 07:32N 48°11' W 006°11'1311.8
2015-Jun-29 06:27N 48°00' W 006°22'1011.5
2015-Jun-29 05:33N 47°52' W 006°30'1211.7
2015-Jun-29 04:34N 47°42' W 006°40'1411.9
2015-Jun-29 03:23N 47°30' W 006°52'1112.8
2015-Jun-29 02:33N 47°22' W 007°00'1812.3
2015-Jun-29 01:04N 47°06' W 007°15'1112.6
2015-Jun-29 00:12N 46°57' W 007°24'812.4
2015-Jun-28 23:32N 46°51' W 007°31'1312.9
2015-Jun-28 22:33N 46°40' W 007°41'1312.6
2015-Jun-28 21:32N 46°29' W 007°51'1812.5
2015-Jun-28 20:06N 46°14' W 008°06'1212.4
2015-Jun-28 19:10N 46°05' W 008°15'12412.4
2015-Jun-28 09:09N 44°21' W 009°53'1212.2
2015-Jun-28 08:08N 44°11' W 010°03'912.4
2015-Jun-28 07:24N 44°03' W 010°10'3612.4
2015-Jun-28 04:28N 43°33' W 010°38'1512.3
2015-Jun-28 03:14N 43°20' W 010°50'9512.4
2015-Jun-27 19:33N 42°01' W 012°02'4112.4
2015-Jun-27 16:16N 41°27' W 012°32'1012.5
2015-Jun-27 15:28N 41°19' W 012°40'1712.4
2015-Jun-27 14:07N 41°05' W 012°52'18112.3
2015-Jun-26 23:22N 38°35' W 015°03'1012.1
2015-Jun-26 22:33N 38°27' W 015°10'1512.6
2015-Jun-26 21:24N 38°14' W 015°20'1012.2
2015-Jun-26 20:33N 38°06' W 015°28'1212.2
2015-Jun-26 19:33N 37°56' W 015°36'1212.4
2015-Jun-26 18:33N 37°45' W 015°45'1412.5
2015-Jun-26 17:26N 37°34' W 015°55'1112.7
2015-Jun-26 16:33N 37°24' W 016°02'1412.4
2015-Jun-26 15:27N 37°13' W 016°12'1212.5
2015-Jun-26 14:29N 37°03' W 016°21'1212.6
2015-Jun-26 13:33N 36°53' W 016°29'1312.6
2015-Jun-26 12:32N 36°43' W 016°38'1312.5
2015-Jun-26 11:32N 36°32' W 016°46'1212.5
2015-Jun-26 10:33N 36°22' W 016°55'1312.8
2015-Jun-26 09:32N 36°11' W 017°04'1312.6
2015-Jun-26 08:29N 36°00' W 017°13'1412.9
2015-Jun-26 07:26N 35°49' W 017°22'  
Track history (hours):
 
Tides and Currents Weather Stations Pressure Air Temp Water Temp Dewpoint Dewpoint Depression Visibility Wind Speed Wind Dir Waves Ship Positions

Atlantic Clover

Last reported at 2015-Jul-01 20:26 UTC. Time now 2015-Jul-02 03:35 UTC.
Position N 54°03' E 008°09'.

Length 180 m; draft 8.1 m.

Type: Cargo ship. MMSI: 371263000.

Date/timePositionNaut miles runAvg speedWind from/ knotsBaromVisibWave heightAir tempDewpointWater temp
2015-Jul-01 20:26N 54°03' E 008°09'0 0.0
2015-Jul-01 19:26N 54°03' E 008°09'0 0.1
2015-Jul-01 17:32N 54°03' E 008°09'0 0.0
2015-Jul-01 16:20N 54°03' E 008°09'0 0.0
2015-Jul-01 15:26N 54°03' E 008°09'0 0.0
2015-Jul-01 14:32N 54°03' E 008°09'0 0.4
2015-Jul-01 13:33N 54°03' E 008°08'6 5.7
2015-Jul-01 12:33N 54°02' E 007°59'2311.3
2015-Jul-01 10:33N 53°54' E 007°23'1312.4
2015-Jul-01 09:31N 53°51' E 007°02'1313.0
2015-Jul-01 08:30N 53°48' E 006°40'1313.3
2015-Jul-01 07:33N 53°45' E 006°19'1313.4
2015-Jul-01 06:33N 53°40' E 005°58'1313.3
2015-Jul-01 05:33N 53°36' E 005°37'1313.3
2015-Jul-01 04:33N 53°31' E 005°16'1313.3
2015-Jul-01 03:33N 53°27' E 004°55'1312.7
2015-Jul-01 02:33N 53°19' E 004°38'1413.7
2015-Jul-01 01:34N 53°07' E 004°27'1312.9
2015-Jul-01 00:33N 52°55' E 004°17'1212.2
2015-Jun-30 23:34N 52°45' E 004°06'1211.8
2015-Jun-30 22:34N 52°36' E 003°54'1111.5
2015-Jun-30 21:34N 52°28' E 003°40'1111.1
2015-Jun-30 20:34N 52°20' E 003°27'1210.8
2015-Jun-30 19:25N 52°12' E 003°13'2310.9
2015-Jun-30 17:20N 51°55' E 002°48'1011.7
2015-Jun-30 16:29N 51°47' E 002°38'1112.2
2015-Jun-30 15:33N 51°38' E 002°26'1312.8
2015-Jun-30 14:33N 51°28' E 002°14'1313.1
2015-Jun-30 13:34N 51°16' E 002°06'1313.5
2015-Jun-30 12:33N 51°08' E 001°48'1514.5
2015-Jun-30 11:33N 50°58' E 001°32'1515.1
2015-Jun-30 10:33N 50°44' E 001°23'1413.7
2015-Jun-30 09:32N 50°35' E 001°07'1313.1
2015-Jun-30 08:33N 50°28' E 000°49'1413.7
2015-Jun-30 07:33N 50°25' E 000°29'1514.2
2015-Jun-30 06:28N 50°21' E 000°05'1313.8
2015-Jun-30 05:33N 50°17' W 000°14'1313.6
2015-Jun-30 04:33N 50°14' W 000°34'1312.9
2015-Jun-30 03:33N 50°11' W 000°54'1211.7
2015-Jun-30 02:33N 50°07' W 001°11'1110.6
2015-Jun-30 01:33N 50°05' W 001°27'10 9.7
2015-Jun-30 00:33N 50°02' W 001°42'9 9.3
2015-Jun-29 23:34N 49°60' W 001°56'10 9.7
2015-Jun-29 22:34N 49°57' W 002°11'1111.1
2015-Jun-29 21:34N 49°54' W 002°27'1312.5
2015-Jun-29 20:34N 49°51' W 002°46'1312.9
2015-Jun-29 19:33N 49°45' W 003°04'1313.1
2015-Jun-29 18:33N 49°39' W 003°22'12013.2
2015-Jun-29 09:25N 48°30' W 005°52'1112.2
2015-Jun-29 08:30N 48°20' W 006°02'1111.8
2015-Jun-29 07:32N 48°11' W 006°11'1311.8
2015-Jun-29 06:27N 48°00' W 006°22'1011.5
2015-Jun-29 05:33N 47°52' W 006°30'1211.7
2015-Jun-29 04:34N 47°42' W 006°40'1411.9
2015-Jun-29 03:23N 47°30' W 006°52'1112.8
2015-Jun-29 02:33N 47°22' W 007°00'1812.3
2015-Jun-29 01:04N 47°06' W 007°15'1112.6
2015-Jun-29 00:12N 46°57' W 007°24'812.4
2015-Jun-28 23:32N 46°51' W 007°31'1312.9
2015-Jun-28 22:33N 46°40' W 007°41'1312.6
2015-Jun-28 21:32N 46°29' W 007°51'1812.5
2015-Jun-28 20:06N 46°14' W 008°06'1212.4
2015-Jun-28 19:10N 46°05' W 008°15'12412.4
2015-Jun-28 09:09N 44°21' W 009°53'1212.2
2015-Jun-28 08:08N 44°11' W 010°03'912.4
2015-Jun-28 07:24N 44°03' W 010°10'3612.4
2015-Jun-28 04:28N 43°33' W 010°38'1512.3
2015-Jun-28 03:14N 43°20' W 010°50'9512.4
2015-Jun-27 19:33N 42°01' W 012°02'4112.4
2015-Jun-27 16:16N 41°27' W 012°32'1012.5
2015-Jun-27 15:28N 41°19' W 012°40'1712.4
2015-Jun-27 14:07N 41°05' W 012°52'18112.3
2015-Jun-26 23:22N 38°35' W 015°03'1012.1
2015-Jun-26 22:33N 38°27' W 015°10'1512.6
2015-Jun-26 21:24N 38°14' W 015°20'1012.2
2015-Jun-26 20:33N 38°06' W 015°28'1212.2
2015-Jun-26 19:33N 37°56' W 015°36'1212.4
2015-Jun-26 18:33N 37°45' W 015°45'1412.5
2015-Jun-26 17:26N 37°34' W 015°55'1112.7
2015-Jun-26 16:33N 37°24' W 016°02'1412.4
2015-Jun-26 15:27N 37°13' W 016°12'1212.5
2015-Jun-26 14:29N 37°03' W 016°21'1212.6
2015-Jun-26 13:33N 36°53' W 016°29'1312.6
2015-Jun-26 12:32N 36°43' W 016°38'1312.5
2015-Jun-26 11:32N 36°32' W 016°46'1212.5
2015-Jun-26 10:33N 36°22' W 016°55'1312.8
2015-Jun-26 09:32N 36°11' W 017°04'1312.6
2015-Jun-26 08:29N 36°00' W 017°13'1412.9
2015-Jun-26 07:26N 35°49' W 017°22'  

Dump ship's entire track history